Schedule Details

Flight Number: ASXVIP4X
Departure: Warszawa Chopina (EPWA) at 1800Z
Arrival: Gdansk im. Lecha Walesy (EPGD) at 1900Z

Weather Information
EPWA 180630Z 31004KT 9999 FEW016 M02/M04 Q1024 NOSIG
EPGD 180630Z 29002KT 8000 SCT041 M03/M04 Q1026

Schedule Frequency

Route Map